• Join FlightAware (Why Join?)
  • Login
  • US Flag 
05:31PM EDT


 

Airport Tracker/Info


-or-


 

Live Flight TrackerFlight Track Log ✈ EJA941 ✈ 04-Oct-2013 ✈ KTEB - KCPS

Flight Track Log - Related Links

Times and Time Zones

All times are in EDT time to prevent confusion due to time zone crossing. See the EJA941 flight status page for this flight to view local times or setup timezone preferences in your user account.

Time Position Orientation Groundspeed Altitude Reporting Facility
EDT Latitude Longitude Course Direction KTS MPH feet Rate Location/Type
10:17AM 40.8333 -74.1000 265° West 183 211 1,500  Level New York TRACON
10:18AM 40.8167 -74.1667 252° West 197 227 3,000 2,100 Climbing New York TRACON
10:19AM 40.8167 -74.2500 270° West 241 277 5,700 2,640 Climbing New York TRACON
10:21AM 40.8025 -74.4444 265° West 292 336 10,700 2,100 Climbing New York Center
10:22AM 40.7783 -74.5472 253° West 314 361 11,800 1,620 Climbing New York Center
10:23AM 40.7720 -75.1223 265° West  Level Estimated
10:23AM 40.7511 -74.6828 255° West 338 389 14,000  Level New York Center
10:24AM 40.7264 -74.7964 254° West 355 409 15,300 1,500 Climbing New York Center
10:25AM 40.6944 -74.9367 253° West 362 417 17,000 1,500 Climbing New York Center
10:26AM 40.6667 -75.0692 255° West 378 435 18,400 1,260 Climbing New York Center
10:27AM 40.6392 -75.1906 253° West 378 435 19,600 1,140 Climbing New York Center
10:28AM 40.6092 -75.3281 254° West 384 442 20,700 1,500 Climbing New York Center
10:29AM 40.5783 -75.4708 254° West 396 456 22,600 2,160 Climbing New York Center
10:31AM 40.5175 -75.7397 254° West 390 449 27,300 2,220 Climbing New York Center
10:32AM 40.4886 -75.8767 255° West 390 449 29,300 1,920 Climbing New York Center
10:33AM 40.4514 -76.0158 251° West 400 460 31,200 1,200 Climbing New York Center
10:34AM 40.4172 -76.1686 254° West 417 480 31,700 660 Climbing New York Center
10:35AM 40.3808 -76.3267 253° West 444 511 32,600 1,200 Climbing New York Center
10:36AM 40.3397 -76.4894 252° West 459 528 34,200 1,740 Climbing New York Center
10:37AM 40.2844 -76.6400 244° Southwest 464 534 36,100 1,860 Climbing New York Center
10:38AM 40.2681 -76.7964 262° West 458 527 38,000 2,100 Climbing New York Center
10:39AM 40.2664 -76.9514 269° West 438 504 40,300 1,800 Climbing New York Center
10:40AM 40.2669 -77.0983 270° West 424 488 41,700 1,200 Climbing New York Center
10:41AM 40.2647 -77.2561 269° West 417 480 42,800 360 Climbing New York Center
10:44AM 40.2603 -77.6019 269° West 435 501 43,000 60 Climbing Cleveland Center
10:45AM 40.2483 -77.7653 265° West 446 513 43,000  Level Cleveland Center
10:46AM 40.2297 -77.9325 262° West 459 528 43,000  Level Cleveland Center
10:47AM 40.2108 -78.0986 262° West 460 529 43,000  Level Cleveland Center
10:48AM 40.1894 -78.2975 262° West 460 529 43,000  Level Cleveland Center
10:49AM 40.1700 -78.4636 261° West 461 531 43,000  Level Cleveland Center
10:50AM 40.1508 -78.6300 261° West 462 532 43,000  Level Cleveland Center
10:51AM 40.1322 -78.7947 262° West 460 529 43,000  Level Cleveland Center
10:52AM 40.1114 -78.9600 261° West 459 528 43,000  Level Cleveland Center
10:53AM 40.0939 -79.1286 262° West 465 535 43,000  Level Cleveland Center
10:54AM 40.0694 -79.3278 261° West 465 535 43,000  Level Cleveland Center
10:55AM 40.0531 -79.4675 261° West 465 535 43,000  Level Cleveland Center
10:56AM 40.0269 -79.6661 260° West 466 536 43,000  Level Cleveland Center
10:57AM 40.0056 -79.8308 260° West 463 533 43,000  Level Cleveland Center
10:58AM 39.9861 -80.0003 262° West 468 539 43,000  Level Cleveland Center
10:59AM 39.9647 -80.1653 260° West 462 532 43,000  Level Cleveland Center
11:00AM 39.9425 -80.3294 260° West 458 527 43,000  Level Cleveland Center
11:01AM 39.9208 -80.4958 260° West 464 534 43,000  Level Cleveland Center
11:02AM 39.8989 -80.6592 260° West 458 527 43,000  Level Cleveland Center
11:03AM 39.8719 -80.8542 260° West 457 526 43,000  Level Cleveland Center
11:04AM 39.8633 -80.9122 259° West 461 531 43,000  Level Indianapolis Center
11:05AM 39.8358 -81.1086 260° West 461 531 43,000  Level Indianapolis Center
11:06AM 39.8136 -81.2714 260° West 460 529 43,000  Level Indianapolis Center
11:07AM 39.7903 -81.4331 259° West 457 526 43,000  Level Indianapolis Center
11:08AM 39.7675 -81.5947 260° West 460 529 43,000  Level Indianapolis Center
11:09AM 39.7439 -81.7589 259° West 459 528 43,000  Level Indianapolis Center
11:10AM 39.7208 -81.9219 260° West 463 533 43,000  Level Indianapolis Center
11:11AM 39.6922 -82.1189 259° West 461 531 43,000  Level Indianapolis Center
11:12AM 39.6672 -82.2808 259° West 461 531 43,000  Level Indianapolis Center
11:13AM 39.6428 -82.4433 259° West 460 529 43,000  Level Indianapolis Center
11:14AM 39.6186 -82.6058 259° West 459 528 43,000  Level Indianapolis Center
11:15AM 39.5939 -82.7689 259° West 460 529 43,000  Level Indianapolis Center
11:16AM 39.5681 -82.9300 258° West 458 527 43,000  Level Indianapolis Center
11:17AM 39.5378 -83.1242 259° West 457 526 43,000  Level Indianapolis Center
11:18AM 39.5125 -83.2858 259° West 456 525 43,000  Level Indianapolis Center
11:19AM 39.4869 -83.4469 258° West 453 521 43,000  Level Indianapolis Center
11:20AM 39.4606 -83.6092 258° West 458 527 43,000  Level Indianapolis Center
11:21AM 39.4350 -83.7697 258° West 454 522 43,000  Level Indianapolis Center
11:22AM 39.4081 -83.9294 258° West 453 521 43,000  Level Indianapolis Center
11:23AM 39.3822 -84.0894 258° West 454 522 43,000  Level Indianapolis Center
11:24AM 39.3556 -84.2489 258° West 454 522 43,000  Level Indianapolis Center
11:25AM 39.3247 -84.4406 258° West 453 521 43,000  Level Indianapolis Center
11:26AM 39.2967 -84.5992 257° West 454 522 43,000  Level Indianapolis Center
11:28AM 39.2694 -84.7572 258° West 452 520 43,000  Level Indianapolis Center
11:29AM 39.2439 -84.8997 257° West 453 521 43,000  Level Indianapolis Center
11:30AM 39.2136 -85.0867 258° West 446 513 43,000  Level Indianapolis Center
11:31AM 39.1858 -85.2411 257° West 443 510 43,000  Level Indianapolis Center
11:32AM 39.1583 -85.3947 257° West 442 509 43,000  Level Indianapolis Center
11:33AM 39.1314 -85.5483 257° West 441 507 43,000  Level Indianapolis Center
11:34AM 39.1028 -85.7044 257° West 445 512 43,000  Level Indianapolis Center
11:35AM 39.0742 -85.8586 257° West 443 510 43,000  Level Indianapolis Center
11:36AM 39.0400 -86.0453 257° West 446 513 43,000  Level Indianapolis Center
11:37AM 39.0114 -86.1997 257° West 445 512 43,000  Level Indianapolis Center
11:38AM 38.9825 -86.3533 256° West 443 510 43,000  Level Indianapolis Center
11:39AM 38.9536 -86.5075 256° West 443 510 43,000 -780 Level Indianapolis Center
11:40AM 38.9231 -86.6733 257° West 443 510 41,500 -1,800 Descending Indianapolis Center
11:41AM 38.8711 -86.8133 245° Southwest 442 509 39,300 -2,160 Descending Indianapolis Center
11:42AM 38.8069 -86.9567 240° Southwest 461 531 37,100 -2,160 Descending Indianapolis Center
11:43AM 38.7372 -87.1028 239° Southwest 479 551 34,900 -1,500 Descending Indianapolis Center
11:44AM 38.6586 -87.2781 240° Southwest 477 549 34,000 -480 Descending Indianapolis Center
11:45AM 38.6183 -87.4378 252° West 476 548 34,000 -240 Level Indianapolis Center
11:46AM 38.5619 -87.5911 245° Southwest 477 549 33,600 -840 Descending Indianapolis Center
11:47AM 38.5086 -87.7425 246° West 471 542 32,300 -1,800 Descending Indianapolis Center
11:48AM 38.4778 -87.9064 257° West 477 549 29,900 -2,280 Descending Indianapolis Center
11:49AM 38.4717 -88.0778 267° West 482 555 27,700 -2,220 Descending Indianapolis Center
11:50AM 38.4628 -88.2775 267° West 469 540 25,400 -2,040 Descending Indianapolis Center
11:51AM 38.4550 -88.4383 267° West 458 527 23,500 -2,160 Descending Indianapolis Center
11:52AM 38.4478 -88.5933 267° West 442 509 21,000 -2,820 Descending Indianapolis Center
11:53AM 38.4414 -88.7431 267° West 424 488 17,700 -3,300 Descending Indianapolis Center
11:54AM 38.4322 -88.8908 266° West 419 482 14,200 -3,180 Descending Indianapolis Center
11:55AM 38.4253 -89.0294 266° West 402 463 11,100 -1,800 Descending Indianapolis Center
11:56AM 38.4219 -89.1417 268° West 345 397 10,500 -1,500 Descending Indianapolis Center
11:57AM 38.4331 -89.2581 277° West 295 339 8,000 -1,740 Descending Indianapolis Center
11:59AM 38.4500 -89.3569 282° West 285 328 7,000 -420 Descending Indianapolis Center
12:00PM 38.4694 -89.4847 281° West 268 308 7,000  Level Kansas City Center
12:01PM 38.4836 -89.5767 281° West 265 305 7,100  Climbing Kansas City Center
12:02PM 38.4981 -89.6722 281° West 272 313 7,100 -60 Level Kansas City Center
12:03PM 38.5128 -89.7697 281° West 275 316 7,000 -960 Descending Kansas City Center
12:04PM 38.5272 -89.8675 281° West 266 306 5,200 -1,080 Descending Kansas City Center
12:05PM 38.5406 -89.9519 281° West 253 291 4,800 -840 Descending Kansas City Center
12:06PM 38.5650 -90.0197 295° West 238 274 3,500 -1,140 Descending Kansas City Center
12:07PM 38.5519 -90.0942 257° West 225 259 2,500 -840 Descending Kansas City Center
12:08PM 38.5447 -90.1583 262° West 216 249 1,800 -540 Descending Kansas City Center
12:09PM 38.5669 -90.2044 302° West 180 207 1,400 -600 Descending Kansas City Center
12:10PM 38.5769 -90.1700 70° East 168 193 600 -780 Descending Kansas City Center